createdAt,value
2019-05-28T00:01:38.592Z,9.50
2019-05-28T00:06:24.485Z,7.70
2019-05-28T00:11:10.401Z,7.20
2019-05-28T00:15:56.329Z,6.20
2019-05-28T00:20:42.107Z,7.33
2019-05-28T00:25:29.381Z,8.50
2019-05-28T00:30:20.484Z,7.23
2019-05-28T00:35:22.503Z,7.47
2019-05-28T00:40:09.433Z,6.03
2019-05-28T00:44:55.250Z,5.80
2019-05-28T00:49:40.988Z,4.70
2019-05-28T00:54:26.834Z,6.60
2019-05-28T00:59:13.636Z,6.47
2019-05-28T01:03:59.368Z,5.10
2019-05-28T01:08:45.272Z,4.10
2019-05-28T01:13:31.134Z,4.47
2019-05-28T01:18:17.048Z,4.53
2019-05-28T01:23:02.954Z,5.40
2019-05-28T01:27:48.779Z,6.27
2019-05-28T01:32:34.538Z,5.53
2019-05-28T01:37:20.373Z,5.37
2019-05-28T01:42:06.336Z,5.30
2019-05-28T01:46:52.046Z,7.50
2019-05-28T01:51:37.965Z,7.10
2019-05-28T01:56:23.672Z,7.13
2019-05-28T02:01:12.727Z,5.73
2019-05-28T02:05:56.725Z,6.03
2019-05-28T02:10:42.519Z,7.07
2019-05-28T02:15:28.453Z,7.63
2019-05-28T02:20:14.666Z,6.00
2019-05-28T02:25:00.511Z,6.73
2019-05-28T02:29:46.312Z,4.50
2019-05-28T02:34:32.076Z,5.17
2019-05-28T02:39:18.039Z,4.73
2019-05-28T02:44:03.865Z,4.27
2019-05-28T02:48:49.635Z,5.00
2019-05-28T02:53:35.561Z,4.73
2019-05-28T02:58:21.791Z,6.07
2019-05-28T03:03:08.878Z,4.80
2019-05-28T03:07:57.046Z,6.67
2019-05-28T03:12:42.741Z,4.30
2019-05-28T03:17:31.303Z,4.20
2019-05-28T03:22:18.656Z,4.17
2019-05-28T03:27:04.540Z,3.67
2019-05-28T03:32:07.103Z,6.00
2019-05-28T03:36:39.418Z,3.87
2019-05-28T03:41:25.230Z,4.47
2019-05-28T03:46:11.109Z,5.00
2019-05-28T03:50:57.064Z,5.20
2019-05-28T03:55:42.892Z,4.80
2019-05-28T04:00:28.733Z,4.40
2019-05-28T04:05:14.695Z,4.03
2019-05-28T04:10:00.424Z,4.90
2019-05-28T04:14:46.136Z,6.07
2019-05-28T04:19:31.914Z,4.10
2019-05-28T04:24:17.678Z,8.87
2019-05-28T04:29:03.378Z,6.23
2019-05-28T04:33:49.136Z,7.00
2019-05-28T04:38:34.944Z,6.83
2019-05-28T04:43:20.737Z,5.83
2019-05-28T04:48:06.828Z,7.43
2019-05-28T04:52:52.622Z,7.13
2019-05-28T04:57:38.409Z,6.80
2019-05-28T05:02:24.267Z,6.87
2019-05-28T05:07:10.010Z,6.43
2019-05-28T05:11:55.755Z,6.73
2019-05-28T05:16:41.587Z,5.73
2019-05-28T05:21:27.675Z,5.83
2019-05-28T05:26:13.917Z,8.53
2019-05-28T05:30:59.728Z,5.30
2019-05-28T05:35:45.479Z,5.30
2019-05-28T05:40:31.367Z,5.47
2019-05-28T05:45:17.338Z,4.30
2019-05-28T05:50:03.203Z,6.77
2019-05-28T05:54:48.962Z,3.73
2019-05-28T05:59:34.743Z,3.80
2019-05-28T06:04:20.494Z,4.17
2019-05-28T06:09:08.284Z,2.63
2019-05-28T06:13:53.954Z,8.80
2019-05-28T06:18:39.793Z,4.13
2019-05-28T06:23:26.075Z,4.20
2019-05-28T06:28:11.802Z,5.87
2019-05-28T06:32:57.765Z,5.03
2019-05-28T06:37:43.505Z,4.37
2019-05-28T06:42:29.285Z,3.70
2019-05-28T06:47:15.174Z,5.47
2019-05-28T06:52:00.971Z,5.27
2019-05-28T06:56:46.757Z,6.93
2019-05-28T07:01:32.522Z,3.33
2019-05-28T07:06:18.239Z,4.27
2019-05-28T07:11:04.088Z,4.87
2019-05-28T07:15:50.027Z,7.10
2019-05-28T07:20:35.840Z,5.73
2019-05-28T07:25:21.970Z,4.23
2019-05-28T07:30:08.161Z,4.93
2019-05-28T07:34:54.044Z,4.23
2019-05-28T07:39:40.100Z,3.77
2019-05-28T07:44:26.138Z,2.93
2019-05-28T07:49:12.027Z,3.00
2019-05-28T07:53:57.787Z,2.57
2019-05-28T07:58:43.463Z,2.03
2019-05-28T08:03:29.334Z,3.93
2019-05-28T08:08:18.331Z,2.00
2019-05-28T08:13:04.221Z,1.73
2019-05-28T08:17:49.968Z,3.47
2019-05-28T08:22:42.415Z,1.63
2019-05-28T08:27:23.395Z,1.63
2019-05-28T08:32:09.213Z,1.73
2019-05-28T08:37:05.306Z,1.80
2019-05-28T08:42:01.707Z,3.00
2019-05-28T08:46:47.500Z,2.57
2019-05-28T08:51:33.340Z,3.17
2019-05-28T08:56:19.368Z,6.10
2019-05-28T09:01:05.125Z,3.47
2019-05-28T09:05:50.934Z,4.73
2019-05-28T09:10:37.079Z,3.17
2019-05-28T09:15:22.893Z,4.57
2019-05-28T09:20:08.923Z,5.60
2019-05-28T09:24:54.865Z,4.73
2019-05-28T09:29:40.616Z,5.77
2019-05-28T09:34:26.339Z,5.37
2019-05-28T09:39:12.938Z,5.47
2019-05-28T09:43:58.709Z,7.63
2019-05-28T09:48:44.494Z,8.07
2019-05-28T09:53:30.256Z,9.27
2019-05-28T09:58:15.939Z,9.93
2019-05-28T10:03:01.804Z,9.60
2019-05-28T10:07:47.553Z,13.70
2019-05-28T10:12:33.338Z,11.97
2019-05-28T10:17:19.268Z,13.37
2019-05-28T10:22:05.175Z,9.80
2019-05-28T10:26:50.897Z,10.90
2019-05-28T10:31:37.354Z,8.73
2019-05-28T10:36:36.023Z,11.47
2019-05-28T10:41:13.270Z,8.70
2019-05-28T10:45:59.616Z,8.80
2019-05-28T10:50:45.433Z,9.40
2019-05-28T10:55:31.418Z,6.80
2019-05-28T11:00:17.763Z,4.40
2019-05-28T11:05:03.829Z,4.33
2019-05-28T11:09:49.798Z,4.47
2019-05-28T11:14:35.505Z,4.63
2019-05-28T11:19:21.425Z,6.40
2019-05-28T11:24:07.398Z,6.53
2019-05-28T11:28:53.132Z,5.90
2019-05-28T11:33:38.911Z,4.63
2019-05-28T11:38:24.777Z,4.47
2019-05-28T11:43:10.607Z,1.60
2019-05-28T11:47:56.420Z,4.13
2019-05-28T11:52:42.143Z,3.80
2019-05-28T11:57:28.054Z,2.07
2019-05-28T12:02:24.995Z,2.33
2019-05-28T12:07:24.990Z,2.67
2019-05-28T12:11:58.192Z,2.33
2019-05-28T12:16:44.197Z,1.90
2019-05-28T12:21:30.066Z,1.17
2019-05-28T12:26:15.933Z,1.20
2019-05-28T12:31:01.732Z,2.00
2019-05-28T12:35:50.310Z,1.30
2019-05-28T12:40:47.049Z,1.57
2019-05-28T12:45:34.816Z,1.63
2019-05-28T12:50:19.869Z,2.07
2019-05-28T12:55:02.363Z,0.93
2019-05-28T12:59:49.297Z,0.53
2019-05-28T13:04:35.103Z,0.97
2019-05-28T13:09:21.146Z,1.33
2019-05-28T13:14:07.313Z,1.50
2019-05-28T13:18:53.144Z,1.10
2019-05-28T13:23:38.962Z,1.10
2019-05-28T13:28:24.887Z,1.73
2019-05-28T13:33:10.899Z,0.83
2019-05-28T13:37:56.838Z,1.07
2019-05-28T13:42:43.006Z,1.53
2019-05-28T13:47:33.755Z,0.80
2019-05-28T13:52:16.408Z,1.27
2019-05-28T13:57:02.290Z,2.27
2019-05-28T14:01:48.415Z,2.67
2019-05-28T14:06:34.508Z,2.00
2019-05-28T14:11:20.385Z,1.33
2019-05-28T14:16:06.351Z,0.90
2019-05-28T14:20:52.366Z,1.10
2019-05-28T14:25:38.331Z,1.87
2019-05-28T14:30:24.788Z,3.90
2019-05-28T14:35:11.050Z,2.00
2019-05-28T14:39:56.985Z,2.90
2019-05-28T14:44:43.405Z,2.50
2019-05-28T14:49:29.285Z,3.07
2019-05-28T14:54:15.035Z,5.77
2019-05-28T14:59:01.202Z,6.67
2019-05-28T15:03:47.133Z,5.87
2019-05-28T15:08:33.374Z,4.40
2019-05-28T15:13:19.432Z,3.87
2019-05-28T15:18:05.414Z,3.27
2019-05-28T15:22:51.212Z,2.80
2019-05-28T15:27:37.059Z,3.57
2019-05-28T15:32:22.998Z,1.60
2019-05-28T15:37:08.769Z,4.53
2019-05-28T15:41:54.935Z,3.27
2019-05-28T15:46:40.757Z,2.77
2019-05-28T15:51:26.707Z,2.37
2019-05-28T15:56:12.836Z,3.67
2019-05-28T16:00:59.088Z,2.50
2019-05-28T16:05:45.203Z,2.43
2019-05-28T16:10:31.197Z,3.33
2019-05-28T16:15:18.197Z,2.93
2019-05-28T16:20:05.031Z,2.30
2019-05-28T16:24:50.974Z,2.40
2019-05-28T16:29:37.136Z,3.07
2019-05-28T16:34:23.215Z,3.17
2019-05-28T16:39:10.260Z,8.60
2019-05-28T16:43:56.456Z,5.37
2019-05-28T16:48:42.431Z,5.73
2019-05-28T16:53:28.517Z,5.13
2019-05-28T16:58:14.380Z,5.00
2019-05-28T17:03:00.416Z,6.73
2019-05-28T17:07:46.651Z,4.10
2019-05-28T17:12:32.622Z,5.70
2019-05-28T17:17:19.055Z,5.10
2019-05-28T17:22:05.041Z,4.23
2019-05-28T17:26:51.195Z,5.00
2019-05-28T17:31:37.120Z,8.43
2019-05-28T17:36:23.156Z,6.83
2019-05-28T17:41:09.499Z,7.80
2019-05-28T17:45:55.641Z,5.00
2019-05-28T17:50:41.984Z,6.30
2019-05-28T17:55:28.151Z,3.83
2019-05-28T18:00:16.512Z,4.83
2019-05-28T18:05:03.015Z,6.77
2019-05-28T18:09:49.213Z,4.47
2019-05-28T18:14:35.228Z,3.53
2019-05-28T18:19:21.257Z,4.77
2019-05-28T18:24:07.326Z,3.27
2019-05-28T18:28:53.161Z,5.40
2019-05-28T18:33:39.303Z,7.37
2019-05-28T18:38:25.403Z,9.07
2019-05-28T18:43:12.083Z,6.40
2019-05-28T18:47:58.413Z,10.10
2019-05-28T18:52:46.270Z,7.07
2019-05-28T18:57:32.162Z,7.97
2019-05-28T19:02:19.740Z,5.03
2019-05-28T19:07:05.864Z,4.40
2019-05-28T19:11:51.994Z,7.03
2019-05-28T19:16:38.177Z,6.57
2019-05-28T19:21:24.259Z,8.57
2019-05-28T19:26:10.340Z,8.33
2019-05-28T19:30:56.264Z,10.77
2019-05-28T19:35:42.426Z,7.10
2019-05-28T19:40:46.594Z,8.70
2019-05-28T19:45:32.375Z,6.80
2019-05-28T19:50:18.624Z,8.37
2019-05-28T19:55:04.892Z,7.83
2019-05-28T19:59:50.773Z,8.27
2019-05-28T20:04:36.957Z,4.37
2019-05-28T20:09:23.302Z,7.17
2019-05-28T20:14:09.051Z,7.97
2019-05-28T20:18:55.725Z,5.87
2019-05-28T20:23:41.730Z,8.00
2019-05-28T20:28:27.624Z,8.23
2019-05-28T20:33:14.038Z,5.03
2019-05-28T20:38:03.580Z,6.67
2019-05-28T20:42:47.648Z,7.33
2019-05-28T20:47:34.260Z,6.83
2019-05-28T20:52:20.455Z,6.10
2019-05-28T20:57:06.787Z,8.53
2019-05-28T21:01:54.079Z,6.03
2019-05-28T21:06:40.670Z,7.33
2019-05-28T21:11:27.094Z,6.10
2019-05-28T21:16:13.081Z,5.37
2019-05-28T21:20:59.619Z,4.77
2019-05-28T21:25:45.700Z,4.17
2019-05-28T21:30:32.003Z,7.07
2019-05-28T21:35:18.277Z,7.07
2019-05-28T21:40:04.752Z,6.43
2019-05-28T21:44:51.876Z,5.80
2019-05-28T21:49:37.870Z,6.10
2019-05-28T21:54:23.605Z,4.93
2019-05-28T21:59:09.981Z,4.30
2019-05-28T22:03:57.213Z,4.60
2019-05-28T22:08:43.411Z,5.50
2019-05-28T22:13:29.534Z,9.13
2019-05-28T22:18:16.055Z,12.30
2019-05-28T22:23:02.676Z,8.00
2019-05-28T22:27:48.988Z,9.27
2019-05-28T22:32:35.074Z,6.30
2019-05-28T22:37:21.337Z,4.07
2019-05-28T22:42:08.532Z,4.20
2019-05-28T22:46:54.587Z,3.10
2019-05-28T22:51:40.562Z,5.80
2019-05-28T22:56:26.639Z,5.97
2019-05-28T23:01:12.648Z,8.83
2019-05-28T23:06:01.527Z,6.20
2019-05-28T23:10:47.575Z,8.83
2019-05-28T23:15:33.409Z,5.90
2019-05-28T23:20:19.222Z,8.00
2019-05-28T23:25:05.796Z,6.10
2019-05-28T23:29:51.498Z,3.40
2019-05-28T23:34:37.226Z,6.27
2019-05-28T23:39:22.905Z,4.77
2019-05-28T23:44:09.573Z,2.97
2019-05-28T23:48:55.477Z,3.10
2019-05-28T23:53:41.246Z,3.80
2019-05-28T23:58:26.978Z,2.20
